NC84 weather

Ellis Airport
Hobgood, North Carolina, United States

Public forecast

Using degrees Fahrenheit for public forecast. Weather courtesy of forecast.io.

METAR (pilot weather report)

Closest report is Tarboro Edgecombe Airport, 10.4 nm (19.2 km) SW. Retrieved 2019/06/16 00:40 UTC (0 seconds ago):

KETC 160040Z AUTO 16006KT 10SM CLR 24/15 A3010 RMK AO2 PWINO T02440153

TAF (pilot weather forecast)

Forecast is more than 12 hours old.

Closest forecast is Pitt Greenville Airport, 24.5 nm (45.3 km) S. Retrieved 2019/06/15 00:42 UTC (24 hours ago):

TAF KPGV 152330Z 1600/1624 VRB06KT P6SM FEW250 FM161400 22008KT P6SM FEW150 FM161900 23009G15KT P6SM FEW050 AMD LTD TO CLD VIS AND WIND